createdAt,value
2022-11-01T00:01:07.991Z,11.80
2022-11-01T00:03:34.851Z,11.70
2022-11-01T00:06:01.667Z,11.70
2022-11-01T00:08:28.640Z,11.60
2022-11-01T00:11:02.954Z,11.60
2022-11-01T00:13:29.721Z,11.60
2022-11-01T00:15:56.731Z,11.50
2022-11-01T00:18:23.790Z,11.50
2022-11-01T00:20:50.575Z,11.40
2022-11-01T00:23:17.423Z,11.30
2022-11-01T00:25:44.099Z,11.30
2022-11-01T00:28:11.228Z,11.20
2022-11-01T00:30:38.557Z,11.20
2022-11-01T00:33:06.043Z,11.10
2022-11-01T00:35:33.223Z,11.20
2022-11-01T00:38:00.715Z,11.10
2022-11-01T00:40:28.000Z,11.10
2022-11-01T00:42:54.845Z,11.10
2022-11-01T00:45:21.720Z,11.00
2022-11-01T00:47:48.875Z,11.00
2022-11-01T00:50:15.656Z,10.90
2022-11-01T00:52:42.512Z,10.90
2022-11-01T00:55:09.335Z,10.90
2022-11-01T00:57:36.153Z,10.80
2022-11-01T01:00:04.415Z,10.80
2022-11-01T01:02:31.197Z,10.80
2022-11-01T01:04:58.084Z,10.80
2022-11-01T01:07:24.836Z,10.80
2022-11-01T01:09:51.514Z,10.80
2022-11-01T01:12:18.478Z,10.80
2022-11-01T01:14:45.133Z,10.80
2022-11-01T01:17:11.874Z,10.80
2022-11-01T01:19:38.588Z,10.70
2022-11-01T01:22:05.273Z,10.70
2022-11-01T01:24:32.212Z,10.70
2022-11-01T01:26:59.062Z,10.70
2022-11-01T01:29:25.734Z,10.60
2022-11-01T01:31:52.717Z,10.60
2022-11-01T01:34:19.487Z,10.60
2022-11-01T01:36:46.529Z,10.60
2022-11-01T01:39:13.280Z,10.70
2022-11-01T01:41:58.418Z,10.70
2022-11-01T01:44:44.206Z,10.80
2022-11-01T01:47:12.340Z,10.80
2022-11-01T01:49:42.516Z,10.90
2022-11-01T01:52:10.154Z,10.90
2022-11-01T01:54:37.559Z,10.80
2022-11-01T01:57:05.036Z,10.80
2022-11-01T01:59:32.450Z,10.80
2022-11-01T02:01:59.848Z,10.80
2022-11-01T02:04:32.926Z,10.80
2022-11-01T02:06:59.974Z,10.80
2022-11-01T02:09:29.403Z,10.80
2022-11-01T02:11:58.532Z,10.80
2022-11-01T02:14:25.929Z,10.80
2022-11-01T02:16:59.534Z,10.80
2022-11-01T02:19:44.967Z,10.80
2022-11-01T02:22:11.632Z,10.80
2022-11-01T02:24:43.016Z,10.80
2022-11-01T02:27:31.390Z,10.80
2022-11-01T02:30:01.528Z,10.80
2022-11-01T02:32:28.217Z,10.70
2022-11-01T02:35:14.211Z,10.80
2022-11-01T02:37:40.925Z,10.70
2022-11-01T02:40:11.480Z,10.70
2022-11-01T02:42:42.511Z,10.70
2022-11-01T02:45:12.878Z,10.70
2022-11-01T02:47:40.420Z,10.70
2022-11-01T02:50:09.294Z,10.70
2022-11-01T02:52:40.575Z,10.70
2022-11-01T02:55:29.757Z,10.70
2022-11-01T02:58:12.399Z,10.70
2022-11-01T03:00:39.473Z,10.70
2022-11-01T03:03:18.342Z,10.80
2022-11-01T03:05:45.089Z,10.80
2022-11-01T03:08:14.576Z,10.90
2022-11-01T03:10:52.544Z,10.90
2022-11-01T03:13:39.242Z,10.90
2022-11-01T03:16:19.018Z,10.90
2022-11-01T03:18:51.343Z,10.90
2022-11-01T03:21:23.085Z,10.90
2022-11-01T03:23:53.461Z,10.90
2022-11-01T03:26:25.019Z,10.90
2022-11-01T03:28:56.953Z,11.00
2022-11-01T03:31:27.703Z,11.00
2022-11-01T03:33:56.445Z,11.00
2022-11-01T03:36:24.600Z,11.00
2022-11-01T03:38:57.573Z,11.10
2022-11-01T03:41:25.232Z,11.10
2022-11-01T03:43:52.555Z,11.10
2022-11-01T03:46:19.761Z,11.10
2022-11-01T03:48:46.596Z,11.10
2022-11-01T03:51:13.254Z,11.10
2022-11-01T03:53:40.042Z,11.00
2022-11-01T03:56:09.158Z,11.00
2022-11-01T03:58:42.086Z,10.90
2022-11-01T04:01:09.722Z,10.90
2022-11-01T04:03:36.688Z,10.90
2022-11-01T04:06:04.298Z,10.90
2022-11-01T04:08:31.508Z,10.80
2022-11-01T04:10:58.495Z,10.80
2022-11-01T04:13:25.360Z,10.80
2022-11-01T04:16:10.816Z,10.80
2022-11-01T04:18:56.360Z,10.80
2022-11-01T04:21:24.775Z,10.80
2022-11-01T04:23:51.534Z,10.80
2022-11-01T04:26:19.638Z,10.80
2022-11-01T04:28:57.165Z,10.90
2022-11-01T04:31:25.439Z,10.90
2022-11-01T04:33:52.546Z,10.80
2022-11-01T04:36:19.515Z,10.80
2022-11-01T04:38:48.221Z,10.80
2022-11-01T04:41:16.389Z,10.70
2022-11-01T04:43:43.053Z,10.70
2022-11-01T04:46:09.717Z,10.70
2022-11-01T04:48:36.498Z,10.80
2022-11-01T04:51:03.291Z,10.70
2022-11-01T04:53:30.069Z,10.80
2022-11-01T04:55:56.802Z,10.80
2022-11-01T04:58:23.571Z,10.80
2022-11-01T05:00:50.329Z,10.80
2022-11-01T05:03:17.109Z,10.80
2022-11-01T05:05:43.796Z,10.80
2022-11-01T05:08:11.286Z,10.90
2022-11-01T05:10:39.254Z,10.90
2022-11-01T05:13:06.606Z,10.90
2022-11-01T05:15:33.720Z,10.90
2022-11-01T05:18:01.989Z,11.00
2022-11-01T05:20:29.127Z,11.00
2022-11-01T05:23:03.794Z,11.00
2022-11-01T05:25:33.931Z,11.10
2022-11-01T05:28:07.132Z,11.10
2022-11-01T05:30:34.536Z,11.20
2022-11-01T05:33:01.992Z,11.20
2022-11-01T05:35:29.212Z,11.30
2022-11-01T05:37:56.040Z,11.30
2022-11-01T05:40:23.324Z,11.40
2022-11-01T05:42:50.330Z,11.40
2022-11-01T05:45:17.384Z,11.40
2022-11-01T05:47:44.142Z,11.40
2022-11-01T05:50:11.793Z,11.30
2022-11-01T05:52:38.586Z,11.30
2022-11-01T05:55:05.620Z,11.30
2022-11-01T05:57:33.511Z,11.30
2022-11-01T06:00:00.806Z,11.30
2022-11-01T06:02:31.092Z,11.30
2022-11-01T06:05:01.740Z,11.40
2022-11-01T06:07:29.466Z,11.40
2022-11-01T06:09:56.192Z,11.40
2022-11-01T06:12:23.378Z,11.30
2022-11-01T06:14:50.183Z,11.30
2022-11-01T06:17:16.870Z,11.20
2022-11-01T06:19:43.699Z,11.20
2022-11-01T06:22:10.353Z,11.30
2022-11-01T06:24:37.034Z,11.30
2022-11-01T06:27:05.443Z,11.40
2022-11-01T06:29:35.218Z,11.40
2022-11-01T06:32:02.981Z,11.40
2022-11-01T06:34:29.860Z,11.40
2022-11-01T06:36:56.513Z,11.50
2022-11-01T06:39:23.276Z,11.50
2022-11-01T06:41:50.805Z,11.50
2022-11-01T06:44:17.469Z,11.60
2022-11-01T06:46:44.220Z,11.70
2022-11-01T06:49:14.892Z,11.80
2022-11-01T06:51:45.481Z,11.90
2022-11-01T06:54:12.239Z,12.00
2022-11-01T06:56:38.983Z,12.10
2022-11-01T06:59:06.471Z,12.20
2022-11-01T07:01:33.702Z,12.30
2022-11-01T07:04:00.578Z,12.40
2022-11-01T07:06:30.794Z,12.50
2022-11-01T07:08:58.964Z,12.60
2022-11-01T07:11:30.942Z,12.80
2022-11-01T07:13:59.644Z,12.90
2022-11-01T07:16:26.861Z,13.10
2022-11-01T07:18:53.814Z,13.30
2022-11-01T07:21:20.904Z,13.40
2022-11-01T07:23:47.628Z,13.50
2022-11-01T07:26:14.352Z,13.60
2022-11-01T07:28:41.019Z,13.70
2022-11-01T07:31:07.791Z,13.80
2022-11-01T07:33:34.992Z,13.80
2022-11-01T07:36:02.279Z,13.90
2022-11-01T07:38:29.314Z,13.90
2022-11-01T07:40:56.099Z,14.00
2022-11-01T07:43:22.942Z,14.00
2022-11-01T07:45:49.816Z,14.10
2022-11-01T07:48:18.336Z,14.10
2022-11-01T07:50:45.660Z,14.10
2022-11-01T07:53:17.292Z,14.10
2022-11-01T07:55:44.471Z,14.10
2022-11-01T07:58:12.016Z,14.10
2022-11-01T08:00:39.725Z,14.20
2022-11-01T08:03:11.099Z,14.20
2022-11-01T08:05:38.744Z,14.30
2022-11-01T08:08:06.636Z,14.30
2022-11-01T08:10:34.061Z,14.40
2022-11-01T08:13:05.212Z,14.50
2022-11-01T08:15:32.194Z,14.60
2022-11-01T08:17:59.376Z,14.60
2022-11-01T08:20:27.443Z,14.80
2022-11-01T08:22:54.308Z,14.90
2022-11-01T08:25:21.042Z,14.90
2022-11-01T08:27:48.004Z,15.00
2022-11-01T08:30:15.866Z,15.00
2022-11-01T08:32:42.507Z,15.00
2022-11-01T08:35:09.430Z,15.00
2022-11-01T08:37:36.179Z,14.90
2022-11-01T08:40:03.441Z,14.90
2022-11-01T08:42:30.152Z,14.90
2022-11-01T08:44:56.963Z,14.90
2022-11-01T08:47:23.643Z,14.80
2022-11-01T08:49:50.430Z,14.80
2022-11-01T08:52:17.274Z,14.80
2022-11-01T08:54:43.985Z,14.80
2022-11-01T08:57:11.355Z,14.70
2022-11-01T08:59:38.347Z,14.70
2022-11-01T09:02:05.179Z,14.70
2022-11-01T09:04:32.157Z,14.70
2022-11-01T09:06:58.854Z,14.70
2022-11-01T09:09:25.611Z,14.70
2022-11-01T09:11:52.855Z,14.60
2022-11-01T09:14:23.867Z,14.60
2022-11-01T09:16:50.873Z,14.60
2022-11-01T09:19:17.814Z,14.60
2022-11-01T09:21:45.049Z,14.60
2022-11-01T09:24:14.474Z,14.70
2022-11-01T09:26:41.553Z,14.70
2022-11-01T09:29:08.287Z,14.70
2022-11-01T09:31:35.133Z,14.80
2022-11-01T09:34:01.792Z,14.80
2022-11-01T09:36:29.044Z,14.90
2022-11-01T09:38:56.584Z,14.90
2022-11-01T09:41:30.163Z,15.00
2022-11-01T09:43:57.856Z,15.20
2022-11-01T09:46:26.901Z,15.60
2022-11-01T09:48:55.374Z,15.90
2022-11-01T09:51:24.189Z,16.00
2022-11-01T09:53:52.183Z,16.10
2022-11-01T09:56:28.054Z,16.20
2022-11-01T09:59:06.134Z,16.30
2022-11-01T10:01:41.356Z,16.40
2022-11-01T10:04:21.160Z,16.60
2022-11-01T10:07:11.131Z,16.70
2022-11-01T10:09:45.831Z,16.90
2022-11-01T10:12:15.586Z,17.40
2022-11-01T10:14:42.246Z,17.70
2022-11-01T10:17:14.587Z,17.90
2022-11-01T10:19:43.896Z,17.70
2022-11-01T10:22:14.015Z,17.40
2022-11-01T10:24:58.583Z,17.10
2022-11-01T10:27:45.669Z,16.90
2022-11-01T10:30:14.264Z,16.80
2022-11-01T10:32:50.043Z,16.80
2022-11-01T10:35:37.405Z,16.80
2022-11-01T10:38:41.947Z,17.00
2022-11-01T10:41:20.196Z,17.20
2022-11-01T10:43:49.390Z,17.50
2022-11-01T10:46:21.536Z,17.90
2022-11-01T10:48:57.125Z,18.10
2022-11-01T10:51:27.862Z,18.10
2022-11-01T10:54:05.522Z,18.00
2022-11-01T10:56:44.783Z,17.80
2022-11-01T10:59:20.327Z,17.80
2022-11-01T11:01:48.992Z,18.30
2022-11-01T11:04:16.703Z,18.90
2022-11-01T11:06:43.657Z,19.30
2022-11-01T11:09:28.909Z,19.30
2022-11-01T11:11:58.303Z,19.20
2022-11-01T11:14:25.864Z,19.00
2022-11-01T11:16:54.504Z,18.80
2022-11-01T11:19:30.663Z,18.60
2022-11-01T11:21:58.342Z,18.40
2022-11-01T11:24:27.034Z,18.30
2022-11-01T11:26:57.396Z,18.30
2022-11-01T11:29:24.309Z,18.30
2022-11-01T11:31:59.101Z,18.10
2022-11-01T11:34:30.684Z,18.10
2022-11-01T11:36:57.982Z,18.00
2022-11-01T11:39:30.036Z,18.00
2022-11-01T11:42:16.051Z,17.90
2022-11-01T11:44:42.736Z,17.80
2022-11-01T11:47:30.240Z,17.80
2022-11-01T11:49:59.804Z,17.90
2022-11-01T11:52:35.445Z,18.10
2022-11-01T11:55:05.456Z,18.20
2022-11-01T11:57:32.411Z,18.30
2022-11-01T12:00:00.062Z,18.40
2022-11-01T12:02:28.194Z,18.40
2022-11-01T12:04:59.357Z,18.40
2022-11-01T12:07:37.876Z,18.40
2022-11-01T12:10:05.965Z,18.60
2022-11-01T12:12:34.661Z,18.60
2022-11-01T12:15:03.437Z,18.60
2022-11-01T12:17:44.266Z,18.70
2022-11-01T12:20:14.089Z,18.80
2022-11-01T12:22:43.465Z,18.90
2022-11-01T12:25:14.968Z,18.90
2022-11-01T12:27:46.133Z,18.80
2022-11-01T12:30:17.486Z,18.80
2022-11-01T12:32:50.291Z,18.70
2022-11-01T12:35:31.210Z,18.60
2022-11-01T12:38:20.621Z,18.50
2022-11-01T12:40:50.162Z,18.50
2022-11-01T12:43:21.944Z,18.60
2022-11-01T12:46:04.079Z,18.70
2022-11-01T12:48:36.194Z,18.80
2022-11-01T12:51:21.290Z,18.70
2022-11-01T12:53:53.476Z,18.70
2022-11-01T12:56:20.292Z,18.60
2022-11-01T12:58:47.110Z,18.50
2022-11-01T13:01:26.156Z,18.40
2022-11-01T13:04:11.995Z,18.30
2022-11-01T13:06:44.760Z,18.30
2022-11-01T13:09:14.523Z,18.40
2022-11-01T13:11:46.795Z,18.40
2022-11-01T13:14:28.714Z,18.40
2022-11-01T13:17:03.121Z,18.40
2022-11-01T13:19:33.732Z,18.40
2022-11-01T13:22:03.022Z,18.30
2022-11-01T13:24:29.685Z,18.40
2022-11-01T13:27:00.838Z,18.50
2022-11-01T13:29:54.038Z,18.60
2022-11-01T13:32:39.628Z,18.70
2022-11-01T13:35:25.752Z,18.70
2022-11-01T13:38:07.137Z,18.60
2022-11-01T13:40:36.087Z,18.70
2022-11-01T13:43:19.578Z,18.80
2022-11-01T13:46:12.805Z,18.90
2022-11-01T13:48:48.581Z,18.90
2022-11-01T13:51:35.670Z,18.90
2022-11-01T13:54:05.456Z,18.90
2022-11-01T13:56:34.413Z,18.90
2022-11-01T13:59:01.277Z,18.80
2022-11-01T14:01:30.786Z,18.70
2022-11-01T14:04:16.409Z,18.50
2022-11-01T14:06:48.897Z,18.50
2022-11-01T14:09:25.727Z,18.50
2022-11-01T14:12:09.976Z,18.50
2022-11-01T14:14:38.668Z,18.50
2022-11-01T14:17:20.927Z,18.50
2022-11-01T14:19:48.512Z,18.40
2022-11-01T14:22:32.680Z,18.40
2022-11-01T14:25:00.851Z,18.40
2022-11-01T14:27:37.592Z,18.30
2022-11-01T14:30:15.462Z,18.20
2022-11-01T14:32:43.283Z,18.10
2022-11-01T14:35:19.137Z,18.10
2022-11-01T14:37:47.882Z,17.90
2022-11-01T14:40:14.547Z,17.80
2022-11-01T14:42:42.742Z,17.70
2022-11-01T14:45:26.037Z,17.70
2022-11-01T14:47:53.328Z,17.60
2022-11-01T14:50:32.558Z,17.50
2022-11-01T14:53:03.091Z,17.50
2022-11-01T14:55:34.609Z,17.50
2022-11-01T14:58:16.538Z,17.40
2022-11-01T15:00:44.412Z,17.40
2022-11-01T15:03:11.821Z,17.30
2022-11-01T15:05:43.522Z,17.30
2022-11-01T15:08:24.532Z,17.20
2022-11-01T15:10:53.192Z,17.10
2022-11-01T15:13:20.556Z,17.10
2022-11-01T15:16:10.893Z,17.00
2022-11-01T15:18:41.508Z,17.00
2022-11-01T15:21:11.585Z,17.00
2022-11-01T15:23:38.520Z,16.90
2022-11-01T15:26:07.069Z,16.90
2022-11-01T15:28:39.354Z,16.80
2022-11-01T15:31:06.554Z,16.70
2022-11-01T15:33:33.772Z,16.60
2022-11-01T15:36:05.272Z,16.50
2022-11-01T15:38:47.973Z,16.30
2022-11-01T15:41:26.697Z,16.10
2022-11-01T15:43:54.283Z,15.90
2022-11-01T15:46:22.807Z,15.80
2022-11-01T15:48:50.741Z,15.70
2022-11-01T15:51:23.010Z,15.50
2022-11-01T15:53:51.940Z,15.40
2022-11-01T15:56:22.862Z,15.20
2022-11-01T15:58:54.780Z,15.20
2022-11-01T16:01:23.304Z,15.00
2022-11-01T16:03:55.504Z,14.90
2022-11-01T16:06:22.283Z,14.80
2022-11-01T16:08:53.370Z,14.80
2022-11-01T16:11:22.675Z,14.80
2022-11-01T16:13:51.104Z,14.70
2022-11-01T16:16:17.910Z,14.50
2022-11-01T16:18:45.380Z,14.40
2022-11-01T16:21:27.983Z,14.30
2022-11-01T16:24:05.350Z,14.20
2022-11-01T16:26:37.109Z,14.20
2022-11-01T16:29:04.569Z,14.10
2022-11-01T16:31:33.415Z,14.00
2022-11-01T16:34:00.089Z,13.90
2022-11-01T16:36:35.597Z,13.90
2022-11-01T16:39:02.624Z,13.90
2022-11-01T16:41:36.401Z,13.80
2022-11-01T16:44:14.284Z,13.80
2022-11-01T16:46:41.278Z,13.80
2022-11-01T16:49:14.082Z,13.70
2022-11-01T16:51:41.286Z,13.70
2022-11-01T16:54:09.411Z,13.60
2022-11-01T16:56:48.190Z,13.60
2022-11-01T16:59:17.991Z,13.60
2022-11-01T17:01:45.926Z,13.60
2022-11-01T17:04:13.457Z,13.60
2022-11-01T17:06:40.137Z,13.60
2022-11-01T17:09:11.637Z,13.60
2022-11-01T17:11:38.361Z,13.50
2022-11-01T17:14:05.217Z,13.50
2022-11-01T17:16:31.938Z,13.50
2022-11-01T17:19:00.013Z,13.50
2022-11-01T17:21:28.838Z,13.50
2022-11-01T17:23:55.799Z,13.60
2022-11-01T17:26:23.804Z,13.50
2022-11-01T17:28:52.553Z,13.50
2022-11-01T17:31:19.372Z,13.50
2022-11-01T17:33:46.149Z,13.50
2022-11-01T17:36:14.156Z,13.50
2022-11-01T17:38:41.067Z,13.60
2022-11-01T17:41:09.155Z,13.60
2022-11-01T17:43:35.838Z,13.60
2022-11-01T17:46:03.275Z,13.60
2022-11-01T17:48:29.957Z,13.50
2022-11-01T17:51:00.746Z,13.50
2022-11-01T17:53:27.419Z,13.50
2022-11-01T17:55:57.608Z,13.50
2022-11-01T17:58:25.067Z,13.40
2022-11-01T18:00:51.767Z,13.30
2022-11-01T18:03:18.517Z,13.20
2022-11-01T18:05:45.328Z,13.10
2022-11-01T18:08:16.784Z,13.00
2022-11-01T18:10:48.107Z,12.90
2022-11-01T18:13:31.256Z,12.80
2022-11-01T18:16:05.318Z,12.70
2022-11-01T18:18:38.414Z,12.70
2022-11-01T18:21:15.824Z,12.60
2022-11-01T18:23:44.007Z,12.60
2022-11-01T18:26:14.825Z,12.60
2022-11-01T18:28:41.610Z,12.50
2022-11-01T18:31:14.885Z,12.50
2022-11-01T18:33:48.098Z,12.50
2022-11-01T18:36:19.707Z,12.50
2022-11-01T18:38:51.309Z,12.50
2022-11-01T18:41:19.514Z,12.50
2022-11-01T18:43:46.248Z,12.40
2022-11-01T18:46:25.798Z,12.30
2022-11-01T18:48:59.248Z,12.10
2022-11-01T18:51:33.124Z,12.00
2022-11-01T18:54:09.073Z,11.90
2022-11-01T18:56:38.233Z,11.90
2022-11-01T18:59:12.208Z,11.90
2022-11-01T19:01:40.625Z,11.90
2022-11-01T19:04:19.140Z,11.90
2022-11-01T19:06:45.922Z,11.90
2022-11-01T19:09:20.250Z,11.90
2022-11-01T19:11:47.020Z,12.00
2022-11-01T19:14:19.215Z,11.90
2022-11-01T19:16:46.047Z,11.90
2022-11-01T19:19:14.900Z,11.80
2022-11-01T19:21:41.602Z,11.70
2022-11-01T19:24:20.130Z,11.70
2022-11-01T19:26:46.912Z,11.70
2022-11-01T19:29:18.500Z,11.70
2022-11-01T19:31:48.467Z,11.70
2022-11-01T19:34:23.794Z,11.70
2022-11-01T19:36:52.487Z,11.70
2022-11-01T19:39:24.178Z,11.80
2022-11-01T19:41:51.741Z,11.70
2022-11-01T19:44:20.091Z,11.70
2022-11-01T19:46:47.015Z,11.60
2022-11-01T19:49:23.547Z,11.40
2022-11-01T19:51:57.849Z,11.30
2022-11-01T19:54:24.601Z,11.20
2022-11-01T19:56:51.362Z,11.10
2022-11-01T19:59:18.165Z,11.00
2022-11-01T20:01:46.266Z,10.90
2022-11-01T20:04:20.109Z,10.80
2022-11-01T20:06:53.245Z,10.70
2022-11-01T20:09:21.713Z,10.70
2022-11-01T20:11:48.676Z,10.70
2022-11-01T20:14:15.354Z,10.60
2022-11-01T20:16:42.314Z,10.60
2022-11-01T20:19:13.153Z,10.60
2022-11-01T20:21:43.352Z,10.50
2022-11-01T20:24:10.002Z,10.40
2022-11-01T20:26:36.792Z,10.40
2022-11-01T20:29:08.390Z,10.40
2022-11-01T20:31:35.106Z,10.60
2022-11-01T20:34:02.253Z,10.80
2022-11-01T20:36:29.140Z,10.90
2022-11-01T20:38:55.873Z,11.00
2022-11-01T20:41:22.724Z,11.00
2022-11-01T20:43:49.615Z,11.10
2022-11-01T20:46:16.532Z,11.10
2022-11-01T20:48:45.199Z,11.10
2022-11-01T20:51:12.649Z,11.10
2022-11-01T20:53:39.316Z,11.10
2022-11-01T20:56:06.706Z,11.20
2022-11-01T20:58:40.149Z,11.30
2022-11-01T21:01:16.948Z,11.40
2022-11-01T21:03:44.322Z,11.50
2022-11-01T21:06:16.668Z,11.50
2022-11-01T21:08:46.965Z,11.50
2022-11-01T21:11:21.670Z,11.40
2022-11-01T21:13:52.380Z,11.50
2022-11-01T21:16:24.137Z,11.50
2022-11-01T21:18:51.708Z,11.40
2022-11-01T21:21:26.263Z,11.40
2022-11-01T21:23:53.043Z,11.30
2022-11-01T21:26:21.050Z,11.20
2022-11-01T21:28:49.093Z,11.20
2022-11-01T21:31:15.745Z,11.10
2022-11-01T21:33:43.899Z,11.00
2022-11-01T21:36:13.548Z,10.90
2022-11-01T21:38:41.128Z,10.90
2022-11-01T21:41:19.520Z,10.80
2022-11-01T21:43:46.318Z,10.80
2022-11-01T21:46:23.007Z,10.70
2022-11-01T21:48:52.612Z,10.70
2022-11-01T21:51:19.416Z,10.60
2022-11-01T21:53:46.319Z,10.50
2022-11-01T21:56:13.013Z,10.50
2022-11-01T21:58:39.968Z,10.40
2022-11-01T22:01:06.679Z,10.30
2022-11-01T22:03:33.483Z,10.30
2022-11-01T22:06:00.416Z,10.30
2022-11-01T22:08:27.071Z,10.40
2022-11-01T22:10:53.921Z,10.50
2022-11-01T22:13:20.550Z,10.50
2022-11-01T22:15:47.224Z,10.50
2022-11-01T22:18:13.855Z,10.60
2022-11-01T22:20:41.240Z,10.60
2022-11-01T22:23:13.771Z,10.60
2022-11-01T22:25:42.410Z,10.60
2022-11-01T22:28:09.229Z,10.50
2022-11-01T22:30:35.902Z,10.40
2022-11-01T22:33:03.604Z,10.30
2022-11-01T22:35:30.657Z,10.30
2022-11-01T22:37:57.526Z,10.20
2022-11-01T22:40:24.296Z,10.20
2022-11-01T22:42:53.891Z,10.10
2022-11-01T22:45:20.668Z,10.10
2022-11-01T22:47:47.462Z,10.10
2022-11-01T22:50:24.510Z,10.00
2022-11-01T22:52:51.176Z,9.90
2022-11-01T22:55:20.226Z,9.90
2022-11-01T22:57:47.901Z,9.90
2022-11-01T23:00:27.161Z,10.00
2022-11-01T23:02:58.277Z,10.20
2022-11-01T23:05:25.549Z,10.30
2022-11-01T23:07:53.693Z,10.40
2022-11-01T23:10:20.410Z,10.40
2022-11-01T23:13:06.343Z,10.40
2022-11-01T23:15:33.916Z,10.40
2022-11-01T23:18:02.628Z,10.40
2022-11-01T23:20:29.925Z,10.30
2022-11-01T23:22:56.603Z,10.30
2022-11-01T23:25:23.485Z,10.30
2022-11-01T23:27:50.178Z,10.30
2022-11-01T23:30:17.328Z,10.30
2022-11-01T23:32:44.690Z,10.20
2022-11-01T23:35:17.576Z,10.20
2022-11-01T23:37:44.491Z,10.30
2022-11-01T23:40:19.169Z,10.30
2022-11-01T23:42:46.585Z,10.30
2022-11-01T23:45:36.393Z,10.30
2022-11-01T23:48:03.874Z,10.30
2022-11-01T23:50:35.370Z,10.20
2022-11-01T23:53:04.084Z,10.30
2022-11-01T23:55:32.137Z,10.20
2022-11-01T23:58:00.247Z,10.20
